Date,TemperatureHighF,TemperatureAvgF,TemperatureLowF,DewpointHighF,DewpointAvgF,DewpointLowF,HumidityHigh,HumidityAvg,HumidityLow,PressureMaxIn,PressureMinIn,WindSpeedMaxMPH,WindSpeedAvgMPH,GustSpeedMaxMPH,PrecipitationSumIn
2013-1-1,25.5,23.4,14.2,9.5,-5.0,-14.6,56,29,17,30.06,29.94,4,2,9,0.00
2013-1-2,26.4,21.0,14.0,11.4,1.0,-5.2,75,42,32,30.06,29.94,9,2,9,0.00
2013-1-3,28.9,24.6,18.3,14.8,3.8,-9.3,62,41,28,30.03,29.91,10,2,10,0.00
2013-1-4,32.4,27.5,24.8,8.6,2.8,-1.0,42,34,25,30.03,29.91,15,4,15,0.00
2013-1-5,24.1,23.6,23.5,6.3,5.5,4.8,47,45,44,30.06,30.06,6,3,6,0.00
2013-1-12,60.6,52.9,46.8,39.5,27.8,14.3,74,41,17,29.85,29.80,8,1,8,0.00
2013-1-13,47.3,39.6,31.3,40.2,26.9,11.9,83,61,44,29.94,29.65,9,1,9,0.51
2013-1-14,31.3,24.9,15.8,15.5,-1.5,-13.2,71,33,15,30.33,29.94,9,3,9,0.00
2013-1-15,35.2,23.1,11.1,27.3,1.0,-13.1,88,44,15,30.36,30.09,6,1,6,0.00
2013-1-16,39.2,29.3,17.8,29.7,3.2,-9.1,91,40,13,30.09,29.74,13,3,13,0.00
2013-1-17,36.0,28.9,16.0,23.3,-1.0,-20.0,70,29,14,30.24,29.85,9,3,9,0.00
2013-1-18,34.3,23.1,9.7,15.0,-4.6,-17.2,76,33,15,30.36,29.88,12,3,13,0.00
2013-1-19,46.4,39.2,30.7,16.2,5.2,-3.9,41,25,14,29.91,29.53,15,4,15,0.00
2013-1-20,43.0,22.8,14.9,12.8,-14.3,-20.5,42,18,13,30.09,29.50,22,6,28,0.00
2013-1-21,20.7,12.9,4.8,10.1,-12.3,-24.4,72,33,18,30.09,30.09,10,3,10,0.00
2013-1-22,11.3,4.8,-2.2,-10.4,-16.3,-22.6,36,36,36,30.09,30.09,11,3,11,0.00
2013-1-23,19.0,10.5,-0.4,11.7,-8.7,-21.1,77,42,21,30.09,30.09,10,1,10,0.00
2013-1-24,24.4,13.9,7.7,14.8,-2.7,-19.4,82,52,17,30.09,30.09,6,1,6,0.00
2013-1-25,26.1,17.8,10.8,19.3,4.6,-3.6,81,57,33,30.09,30.09,8,1,8,0.00
2013-1-26,29.5,21.8,9.3,23.5,4.3,-11.0,88,51,18,30.09,30.09,7,1,8,0.00
2013-1-27,30.9,20.1,5.9,25.4,3.2,-9.8,87,52,18,30.09,29.50,11,3,11,0.00
2013-1-28,44.4,36.3,28.0,40.8,30.2,20.4,89,79,51,29.68,29.44,12,1,13,0.47
2013-1-29,55.6,44.0,32.9,52.7,40.6,24.5,91,87,69,29.68,29.18,9,2,10,0.94
2013-1-30,57.7,50.4,33.6,49.7,35.6,11.9,85,58,38,29.18,28.82,13,3,13,0.39
2013-1-31,33.4,22.6,16.3,12.3,-9.8,-16.5,41,23,17,29.53,28.91,17,6,17,0.00